createdAt,value
2022-12-20T00:00:00.131Z,61.96
2022-12-20T00:02:02.463Z,61.88
2022-12-20T00:04:08.175Z,62.14
2022-12-20T00:06:11.235Z,61.98
2022-12-20T00:08:13.598Z,61.64
2022-12-20T00:10:15.269Z,61.89
2022-12-20T00:12:17.463Z,61.64
2022-12-20T00:14:19.259Z,62.91
2022-12-20T00:16:24.630Z,62.65
2022-12-20T00:18:26.358Z,62.75
2022-12-20T00:20:28.559Z,62.13
2022-12-20T00:22:31.278Z,62.14
2022-12-20T00:24:33.173Z,62.38
2022-12-20T00:26:35.969Z,62.61
2022-12-20T00:28:38.884Z,62.62
2022-12-20T00:30:40.593Z,62.26
2022-12-20T00:32:42.879Z,61.83
2022-12-20T00:34:44.643Z,62.20
2022-12-20T00:36:46.390Z,61.83
2022-12-20T00:38:50.051Z,61.59
2022-12-20T00:41:13.349Z,61.73
2022-12-20T00:43:15.038Z,61.53
2022-12-20T00:45:16.840Z,61.22
2022-12-20T00:47:18.653Z,61.71
2022-12-20T00:49:20.465Z,61.30
2022-12-20T00:51:26.250Z,61.91
2022-12-20T00:53:28.705Z,61.88
2022-12-20T00:55:30.331Z,61.51
2022-12-20T00:57:33.387Z,61.63
2022-12-20T00:59:36.531Z,61.02
2022-12-20T01:01:38.201Z,60.97
2022-12-20T01:03:40.204Z,60.96
2022-12-20T01:05:54.411Z,61.79
2022-12-20T01:07:56.043Z,61.07
2022-12-20T01:09:57.693Z,60.83
2022-12-20T01:11:59.395Z,60.82
2022-12-20T01:14:06.041Z,60.38
2022-12-20T01:16:09.891Z,60.79
2022-12-20T01:18:11.428Z,60.71
2022-12-20T01:20:13.331Z,60.13
2022-12-20T01:22:14.939Z,60.19
2022-12-20T01:24:18.678Z,60.50
2022-12-20T01:26:22.912Z,60.53
2022-12-20T01:28:24.584Z,60.77
2022-12-20T01:30:26.331Z,60.58
2022-12-20T01:32:28.140Z,60.66
2022-12-20T01:34:29.813Z,60.35
2022-12-20T01:36:36.093Z,60.15
2022-12-20T01:38:37.985Z,60.11
2022-12-20T01:40:39.673Z,60.16
2022-12-20T01:42:41.331Z,59.93
2022-12-20T01:44:43.066Z,60.25
2022-12-20T01:46:47.172Z,60.31
2022-12-20T01:49:16.536Z,60.46
2022-12-20T01:51:19.307Z,60.17
2022-12-20T01:53:22.703Z,59.92
2022-12-20T01:55:25.947Z,60.35
2022-12-20T01:57:32.137Z,60.79
2022-12-20T01:59:35.821Z,60.56
2022-12-20T02:01:37.897Z,61.02
2022-12-20T02:03:40.629Z,60.29
2022-12-20T02:05:48.056Z,60.07
2022-12-20T02:07:54.350Z,62.04
2022-12-20T02:09:57.450Z,61.44
2022-12-20T02:12:02.430Z,60.82
2022-12-20T02:14:10.522Z,60.86
2022-12-20T02:16:15.709Z,60.37
2022-12-20T02:18:22.625Z,60.43
2022-12-20T02:20:48.161Z,59.71
2022-12-20T02:23:17.019Z,60.29
2022-12-20T02:25:27.686Z,60.17
2022-12-20T02:28:14.450Z,59.77
2022-12-20T02:30:25.005Z,59.70
2022-12-20T02:32:30.936Z,59.46
2022-12-20T02:34:34.324Z,59.37
2022-12-20T02:36:36.330Z,59.08
2022-12-20T02:38:42.988Z,59.01
2022-12-20T02:40:45.314Z,59.65
2022-12-20T02:42:48.661Z,59.05
2022-12-20T02:45:15.925Z,59.41
2022-12-20T02:47:41.185Z,58.88
2022-12-20T02:49:43.233Z,59.16
2022-12-20T02:51:47.524Z,59.07
2022-12-20T02:53:49.351Z,59.46
2022-12-20T02:56:15.189Z,60.28
2022-12-20T02:58:31.900Z,59.64
2022-12-20T03:00:38.853Z,59.95
2022-12-20T03:03:00.069Z,59.34
2022-12-20T03:05:02.792Z,59.31
2022-12-20T03:07:07.722Z,59.23
2022-12-20T03:09:10.541Z,59.49
2022-12-20T03:11:12.269Z,59.49
2022-12-20T03:13:14.871Z,59.24
2022-12-20T03:15:16.688Z,59.28
2022-12-20T03:17:18.741Z,59.32
2022-12-20T03:19:20.706Z,58.97
2022-12-20T03:21:22.506Z,59.00
2022-12-20T03:23:24.443Z,59.01
2022-12-20T03:25:26.456Z,59.26
2022-12-20T03:27:28.247Z,59.92
2022-12-20T03:29:29.921Z,59.21
2022-12-20T03:31:31.843Z,59.64
2022-12-20T03:33:33.759Z,59.57
2022-12-20T03:35:35.582Z,59.77
2022-12-20T03:37:37.349Z,60.15
2022-12-20T03:39:38.982Z,59.95
2022-12-20T03:41:42.584Z,59.77
2022-12-20T03:43:45.815Z,59.90
2022-12-20T03:45:47.841Z,59.65
2022-12-20T03:47:49.524Z,59.45
2022-12-20T03:49:52.135Z,59.45
2022-12-20T03:51:53.878Z,59.69
2022-12-20T03:53:55.752Z,59.48
2022-12-20T03:55:57.502Z,60.45
2022-12-20T03:58:00.359Z,59.87
2022-12-20T04:00:02.234Z,59.73
2022-12-20T04:02:04.485Z,59.60
2022-12-20T04:04:08.397Z,59.74
2022-12-20T04:06:10.043Z,59.84
2022-12-20T04:08:12.017Z,59.53
2022-12-20T04:10:15.298Z,59.47
2022-12-20T04:12:16.947Z,59.61
2022-12-20T04:14:18.648Z,59.88
2022-12-20T04:16:23.045Z,60.17
2022-12-20T04:18:24.727Z,59.68
2022-12-20T04:20:26.565Z,60.36
2022-12-20T04:22:28.178Z,59.84
2022-12-20T04:24:29.800Z,59.83
2022-12-20T04:26:31.596Z,60.27
2022-12-20T04:28:33.718Z,60.70
2022-12-20T04:30:36.619Z,61.30
2022-12-20T04:32:38.410Z,60.51
2022-12-20T04:34:40.082Z,60.81
2022-12-20T04:36:41.713Z,60.78
2022-12-20T04:38:43.382Z,60.30
2022-12-20T04:40:45.007Z,60.38
2022-12-20T04:42:46.698Z,60.50
2022-12-20T04:44:49.813Z,60.86
2022-12-20T04:46:51.620Z,60.78
2022-12-20T04:48:58.936Z,60.76
2022-12-20T04:51:01.140Z,60.00
2022-12-20T04:53:23.862Z,60.38
2022-12-20T04:55:25.534Z,59.71
2022-12-20T04:57:27.192Z,60.02
2022-12-20T04:59:28.887Z,60.46
2022-12-20T05:01:30.602Z,60.62
2022-12-20T05:03:32.435Z,60.74
2022-12-20T05:05:34.205Z,61.19
2022-12-20T05:07:36.969Z,60.19
2022-12-20T05:09:38.833Z,60.46
2022-12-20T05:11:40.557Z,60.52
2022-12-20T05:13:42.309Z,60.51
2022-12-20T05:15:44.080Z,60.65
2022-12-20T05:17:45.908Z,60.50
2022-12-20T05:19:47.888Z,60.12
2022-12-20T05:22:07.768Z,60.75
2022-12-20T05:24:28.312Z,60.53
2022-12-20T05:26:32.952Z,60.66
2022-12-20T05:28:34.729Z,60.76
2022-12-20T05:30:36.442Z,60.84
2022-12-20T05:32:38.389Z,61.06
2022-12-20T05:34:40.062Z,60.94
2022-12-20T05:36:41.741Z,60.19
2022-12-20T05:38:43.391Z,60.58
2022-12-20T05:40:47.950Z,60.57
2022-12-20T05:42:49.579Z,60.37
2022-12-20T05:44:51.669Z,60.33
2022-12-20T05:46:53.423Z,61.05
2022-12-20T05:48:55.277Z,60.91
2022-12-20T05:50:56.944Z,60.90
2022-12-20T05:52:58.577Z,60.56
2022-12-20T05:55:02.407Z,60.33
2022-12-20T05:57:04.137Z,60.56
2022-12-20T05:59:06.082Z,60.85
2022-12-20T06:01:10.416Z,60.73
2022-12-20T06:03:12.326Z,60.51
2022-12-20T06:05:13.998Z,60.91
2022-12-20T06:07:15.609Z,60.07
2022-12-20T06:09:17.323Z,60.47
2022-12-20T06:11:20.361Z,61.19
2022-12-20T06:13:24.829Z,60.39
2022-12-20T06:15:27.832Z,61.04
2022-12-20T06:17:29.485Z,60.73
2022-12-20T06:19:31.229Z,60.42
2022-12-20T06:21:32.913Z,60.42
2022-12-20T06:23:34.621Z,60.32
2022-12-20T06:25:38.329Z,60.19
2022-12-20T06:27:39.989Z,59.80
2022-12-20T06:29:41.801Z,59.78
2022-12-20T06:31:43.973Z,59.04
2022-12-20T06:33:45.688Z,56.78
2022-12-20T06:35:47.497Z,53.62
2022-12-20T06:37:49.137Z,52.35
2022-12-20T06:39:50.815Z,51.40
2022-12-20T06:41:52.516Z,52.36
2022-12-20T06:43:54.225Z,52.94
2022-12-20T06:45:57.501Z,53.15
2022-12-20T06:47:59.239Z,53.63
2022-12-20T06:50:00.892Z,53.83
2022-12-20T06:52:02.537Z,54.48
2022-12-20T06:54:04.220Z,54.25
2022-12-20T06:56:06.261Z,55.96
2022-12-20T06:58:07.929Z,56.85
2022-12-20T07:00:10.563Z,57.20
2022-12-20T07:02:12.768Z,56.66
2022-12-20T07:04:14.560Z,57.46
2022-12-20T07:06:16.533Z,57.06
2022-12-20T07:08:18.118Z,57.20
2022-12-20T07:10:19.807Z,57.12
2022-12-20T07:12:22.295Z,56.29
2022-12-20T07:14:24.352Z,56.58
2022-12-20T07:16:29.242Z,56.49
2022-12-20T07:18:31.643Z,56.41
2022-12-20T07:20:34.857Z,55.81
2022-12-20T07:22:36.640Z,55.88
2022-12-20T07:24:39.288Z,55.10
2022-12-20T07:26:41.214Z,55.34
2022-12-20T07:28:43.407Z,55.54
2022-12-20T07:30:46.613Z,54.82
2022-12-20T07:32:49.368Z,54.78
2022-12-20T07:34:51.004Z,55.59
2022-12-20T07:36:52.754Z,55.97
2022-12-20T07:38:54.585Z,55.79
2022-12-20T07:40:56.290Z,55.23
2022-12-20T07:42:57.959Z,55.89
2022-12-20T07:44:59.616Z,55.67
2022-12-20T07:47:01.451Z,55.46
2022-12-20T07:49:03.138Z,55.72
2022-12-20T07:51:10.581Z,55.12
2022-12-20T07:53:12.362Z,54.28
2022-12-20T07:55:15.285Z,53.75
2022-12-20T07:57:26.017Z,53.52
2022-12-20T07:59:31.345Z,53.41
2022-12-20T08:01:33.192Z,53.43
2022-12-20T08:03:41.561Z,53.37
2022-12-20T08:05:46.150Z,53.24
2022-12-20T08:07:51.137Z,52.93
2022-12-20T08:09:57.416Z,52.92
2022-12-20T08:11:59.487Z,52.81
2022-12-20T08:14:01.546Z,52.96
2022-12-20T08:16:03.344Z,52.34
2022-12-20T08:18:06.392Z,51.50
2022-12-20T08:20:09.025Z,52.48
2022-12-20T08:22:10.650Z,52.71
2022-12-20T08:24:12.327Z,53.34
2022-12-20T08:26:14.381Z,53.41
2022-12-20T08:28:16.262Z,54.05
2022-12-20T08:30:19.192Z,53.60
2022-12-20T08:32:21.440Z,53.24
2022-12-20T08:34:23.955Z,52.35
2022-12-20T08:36:26.264Z,52.14
2022-12-20T08:38:33.979Z,51.62
2022-12-20T08:40:35.617Z,51.50
2022-12-20T08:42:37.359Z,51.20
2022-12-20T08:44:39.582Z,51.58
2022-12-20T08:46:41.567Z,50.06
2022-12-20T08:48:43.236Z,49.53
2022-12-20T08:50:45.606Z,49.00
2022-12-20T08:52:47.581Z,49.00
2022-12-20T08:54:49.322Z,49.94
2022-12-20T08:56:52.343Z,50.53
2022-12-20T08:58:54.931Z,50.69
2022-12-20T09:01:06.356Z,50.47
2022-12-20T09:03:10.227Z,48.70
2022-12-20T09:05:12.109Z,48.07
2022-12-20T09:07:13.817Z,48.29
2022-12-20T09:09:16.565Z,48.45
2022-12-20T09:11:23.587Z,47.00
2022-12-20T09:13:25.325Z,48.23
2022-12-20T09:15:28.152Z,47.09
2022-12-20T09:17:30.202Z,47.36
2022-12-20T09:19:32.052Z,47.22
2022-12-20T09:21:34.871Z,47.11
2022-12-20T09:23:37.433Z,47.15
2022-12-20T09:25:39.274Z,46.62
2022-12-20T09:27:40.955Z,46.22
2022-12-20T09:29:42.970Z,44.93
2022-12-20T09:31:45.189Z,45.17
2022-12-20T09:33:47.100Z,45.21
2022-12-20T09:35:48.807Z,44.43
2022-12-20T09:37:50.424Z,44.88
2022-12-20T09:39:52.242Z,44.35
2022-12-20T09:41:54.322Z,44.24
2022-12-20T09:43:57.960Z,44.17
2022-12-20T09:46:02.658Z,44.62
2022-12-20T09:48:05.882Z,45.33
2022-12-20T09:50:08.204Z,44.60
2022-12-20T09:52:47.180Z,44.10
2022-12-20T09:55:10.365Z,45.05
2022-12-20T09:57:22.140Z,44.75
2022-12-20T09:59:25.238Z,44.18
2022-12-20T10:01:36.238Z,44.87
2022-12-20T10:03:40.033Z,46.23
2022-12-20T10:05:54.750Z,47.83
2022-12-20T10:08:23.956Z,47.92
2022-12-20T10:10:45.848Z,47.50
2022-12-20T10:13:14.422Z,47.46
2022-12-20T10:15:19.226Z,48.50
2022-12-20T10:17:44.840Z,47.38
2022-12-20T10:19:59.409Z,48.50
2022-12-20T10:22:26.695Z,48.42
2022-12-20T10:24:31.246Z,47.57
2022-12-20T10:26:33.420Z,47.16
2022-12-20T10:28:36.053Z,46.87
2022-12-20T10:30:37.708Z,48.12
2022-12-20T10:32:40.271Z,48.48
2022-12-20T10:34:52.511Z,49.34
2022-12-20T10:37:14.524Z,49.13
2022-12-20T10:39:16.231Z,48.83
2022-12-20T10:41:22.254Z,47.84
2022-12-20T10:43:25.185Z,47.71
2022-12-20T10:45:36.660Z,48.12
2022-12-20T10:47:42.110Z,48.50
2022-12-20T10:49:43.866Z,47.83
2022-12-20T10:51:53.116Z,48.37
2022-12-20T10:53:59.679Z,47.48
2022-12-20T10:56:21.086Z,48.16
2022-12-20T10:58:30.380Z,47.82
2022-12-20T11:00:33.212Z,46.34
2022-12-20T11:02:42.430Z,47.01
2022-12-20T11:05:01.040Z,46.32
2022-12-20T11:07:14.026Z,46.90
2022-12-20T11:09:33.770Z,46.31
2022-12-20T11:11:35.600Z,46.03
2022-12-20T11:13:37.437Z,45.95
2022-12-20T11:15:49.303Z,45.29
2022-12-20T11:17:58.537Z,45.71
2022-12-20T11:20:26.590Z,45.32
2022-12-20T11:22:43.475Z,44.71
2022-12-20T11:25:12.750Z,44.58
2022-12-20T11:27:24.462Z,44.28
2022-12-20T11:30:11.352Z,44.28
2022-12-20T11:32:48.656Z,42.70
2022-12-20T11:35:20.956Z,42.07
2022-12-20T11:37:27.079Z,41.98
2022-12-20T11:39:48.864Z,41.78
2022-12-20T11:42:01.160Z,41.39
2022-12-20T11:44:25.158Z,41.23
2022-12-20T11:46:40.972Z,41.51
2022-12-20T11:48:54.263Z,41.29
2022-12-20T11:51:07.576Z,40.97
2022-12-20T11:53:20.418Z,41.22
2022-12-20T11:55:27.669Z,41.15
2022-12-20T11:57:54.891Z,40.80
2022-12-20T11:59:59.041Z,41.33
2022-12-20T12:02:23.389Z,42.51
2022-12-20T12:04:31.792Z,41.96
2022-12-20T12:06:40.100Z,41.93
2022-12-20T12:08:47.100Z,41.55
2022-12-20T12:11:32.271Z,41.78
2022-12-20T12:13:36.571Z,41.93
2022-12-20T12:15:48.775Z,42.60
2022-12-20T12:18:06.086Z,43.99
2022-12-20T12:20:25.795Z,43.13
2022-12-20T12:22:33.364Z,42.69
2022-12-20T12:24:43.984Z,42.42
2022-12-20T12:26:45.681Z,41.92
2022-12-20T12:28:58.375Z,41.77
2022-12-20T12:31:07.269Z,40.93
2022-12-20T12:33:22.145Z,41.09
2022-12-20T12:35:35.003Z,41.53
2022-12-20T12:37:51.401Z,42.70
2022-12-20T12:40:37.128Z,43.78
2022-12-20T12:43:06.853Z,42.69
2022-12-20T12:45:29.341Z,42.01
2022-12-20T12:47:39.212Z,42.63
2022-12-20T12:49:41.217Z,42.55
2022-12-20T12:51:50.169Z,41.75
2022-12-20T12:53:54.115Z,41.28
2022-12-20T12:56:12.887Z,41.77
2022-12-20T12:58:23.560Z,41.33
2022-12-20T13:00:59.370Z,41.13
2022-12-20T13:03:06.074Z,41.26
2022-12-20T13:05:10.626Z,41.77
2022-12-20T13:07:33.959Z,41.95
2022-12-20T13:09:37.834Z,42.02
2022-12-20T13:11:46.235Z,41.04
2022-12-20T13:13:48.684Z,41.09
2022-12-20T13:15:51.545Z,41.22
2022-12-20T13:18:00.530Z,41.10
2022-12-20T13:20:02.318Z,40.89
2022-12-20T13:22:13.388Z,41.10
2022-12-20T13:24:38.242Z,40.68
2022-12-20T13:26:51.060Z,41.06
2022-12-20T13:28:53.008Z,40.85
2022-12-20T13:31:04.907Z,40.24
2022-12-20T13:33:25.879Z,40.56
2022-12-20T13:35:47.778Z,40.93
2022-12-20T13:38:04.086Z,41.15
2022-12-20T13:40:06.719Z,41.11
2022-12-20T13:42:34.474Z,41.01
2022-12-20T13:44:41.505Z,40.98
2022-12-20T13:46:46.843Z,40.93
2022-12-20T13:48:54.232Z,41.26
2022-12-20T13:50:57.030Z,40.82
2022-12-20T13:52:59.231Z,41.54
2022-12-20T13:55:05.529Z,42.21
2022-12-20T13:57:08.096Z,42.33
2022-12-20T13:59:32.332Z,42.40
2022-12-20T14:01:36.215Z,42.41
2022-12-20T14:03:48.138Z,42.58
2022-12-20T14:06:01.699Z,43.25
2022-12-20T14:08:20.453Z,43.82
2022-12-20T14:10:27.774Z,43.68
2022-12-20T14:12:36.511Z,43.54
2022-12-20T14:14:49.879Z,43.83
2022-12-20T14:16:51.636Z,43.73
2022-12-20T14:19:05.310Z,44.24
2022-12-20T14:21:07.383Z,44.03
2022-12-20T14:23:18.826Z,44.07
2022-12-20T14:25:30.259Z,43.97
2022-12-20T14:27:34.948Z,44.08
2022-12-20T14:29:37.685Z,45.08
2022-12-20T14:31:42.064Z,45.07
2022-12-20T14:33:43.820Z,44.27
2022-12-20T14:35:49.580Z,43.97
2022-12-20T14:38:19.263Z,44.96
2022-12-20T14:40:21.573Z,44.41
2022-12-20T14:42:23.378Z,44.38
2022-12-20T14:44:28.358Z,44.47
2022-12-20T14:46:31.211Z,44.52
2022-12-20T14:48:32.949Z,44.35
2022-12-20T14:50:36.599Z,44.13
2022-12-20T14:52:39.513Z,44.81
2022-12-20T14:57:12.516Z,44.41
2022-12-20T14:59:18.326Z,44.19
2022-12-20T15:01:27.782Z,44.52
2022-12-20T15:03:29.913Z,44.54
2022-12-20T15:05:40.974Z,44.74
2022-12-20T15:07:42.682Z,44.90
2022-12-20T15:09:44.373Z,44.56
2022-12-20T15:11:46.865Z,44.20
2022-12-20T15:13:52.543Z,44.15
2022-12-20T15:15:54.261Z,44.77
2022-12-20T15:17:57.204Z,45.32
2022-12-20T15:19:59.552Z,44.63
2022-12-20T15:22:02.007Z,44.78
2022-12-20T15:24:10.262Z,44.36
2022-12-20T15:26:15.386Z,44.87
2022-12-20T15:28:22.743Z,45.43
2022-12-20T15:30:24.578Z,44.52
2022-12-20T15:32:29.746Z,45.23
2022-12-20T15:34:36.590Z,44.65
2022-12-20T15:36:38.742Z,45.03
2022-12-20T15:39:10.768Z,45.06
2022-12-20T15:41:06.528Z,45.58
2022-12-20T15:43:12.629Z,46.33
2022-12-20T15:45:14.778Z,44.99
2022-12-20T15:47:16.976Z,45.70
2022-12-20T15:49:41.974Z,45.95
2022-12-20T15:51:49.403Z,46.63
2022-12-20T15:53:51.196Z,45.59
2022-12-20T15:55:54.139Z,45.63
2022-12-20T15:57:55.745Z,45.64
2022-12-20T16:00:01.023Z,46.12
2022-12-20T16:02:03.826Z,46.39
2022-12-20T16:04:06.492Z,45.79
2022-12-20T16:06:13.099Z,45.83
2022-12-20T16:08:16.491Z,46.13
2022-12-20T16:10:18.326Z,46.83
2022-12-20T16:12:24.761Z,46.41
2022-12-20T16:14:27.661Z,46.89
2022-12-20T16:16:32.083Z,47.28
2022-12-20T16:18:34.921Z,46.53
2022-12-20T16:20:37.069Z,47.01
2022-12-20T16:22:38.740Z,47.07
2022-12-20T16:24:40.782Z,47.05
2022-12-20T16:26:43.263Z,48.03
2022-12-20T16:28:45.745Z,47.93
2022-12-20T16:30:52.953Z,47.56
2022-12-20T16:32:55.387Z,47.93
2022-12-20T16:34:57.052Z,48.53
2022-12-20T16:36:58.707Z,48.48
2022-12-20T16:39:00.384Z,48.83
2022-12-20T16:41:18.486Z,48.81
2022-12-20T16:43:20.092Z,49.29
2022-12-20T16:45:24.360Z,49.34
2022-12-20T16:47:26.457Z,49.44
2022-12-20T16:49:28.368Z,49.06
2022-12-20T16:51:35.724Z,49.65
2022-12-20T16:54:02.181Z,49.47
2022-12-20T16:55:59.198Z,49.38
2022-12-20T16:58:00.987Z,49.25
2022-12-20T17:00:03.096Z,49.13
2022-12-20T17:02:27.511Z,49.30
2022-12-20T17:04:29.342Z,49.82
2022-12-20T17:06:31.239Z,49.36
2022-12-20T17:10:53.008Z,49.61
2022-12-20T17:12:55.290Z,49.46
2022-12-20T17:14:57.039Z,49.22
2022-12-20T17:16:58.773Z,49.38
2022-12-20T17:19:01.525Z,48.38
2022-12-20T17:21:05.122Z,48.60
2022-12-20T17:23:10.040Z,48.63
2022-12-20T17:25:20.780Z,49.21
2022-12-20T17:27:22.504Z,48.72
2022-12-20T17:29:24.125Z,48.14
2022-12-20T17:31:39.581Z,48.46
2022-12-20T17:33:41.285Z,48.78
2022-12-20T17:35:43.923Z,48.66
2022-12-20T17:37:47.864Z,48.07
2022-12-20T17:39:49.480Z,47.76
2022-12-20T17:41:52.278Z,48.55
2022-12-20T17:43:54.755Z,49.09
2022-12-20T17:45:57.749Z,48.79
2022-12-20T17:47:59.642Z,48.82
2022-12-20T17:50:01.331Z,48.82
2022-12-20T17:52:04.221Z,48.54
2022-12-20T17:54:05.946Z,48.56
2022-12-20T17:56:16.294Z,48.35
2022-12-20T17:58:17.904Z,48.58
2022-12-20T18:00:23.716Z,49.38
2022-12-20T18:02:26.317Z,48.34
2022-12-20T18:04:28.513Z,48.94
2022-12-20T18:06:32.032Z,50.53
2022-12-20T18:08:33.765Z,50.81
2022-12-20T18:10:36.659Z,51.31
2022-12-20T18:12:39.112Z,52.07
2022-12-20T18:14:41.004Z,52.59
2022-12-20T18:16:42.811Z,52.53
2022-12-20T18:18:44.730Z,54.01
2022-12-20T18:20:46.454Z,53.91
2022-12-20T18:22:48.775Z,54.89
2022-12-20T18:24:50.510Z,55.19
2022-12-20T18:26:53.472Z,54.87
2022-12-20T18:29:02.236Z,54.28
2022-12-20T18:31:05.993Z,54.78
2022-12-20T18:33:07.773Z,54.83
2022-12-20T18:35:10.007Z,55.48
2022-12-20T18:37:11.745Z,55.16
2022-12-20T18:39:13.935Z,54.87
2022-12-20T18:41:23.966Z,54.66
2022-12-20T18:43:27.505Z,55.17
2022-12-20T18:45:29.255Z,54.62
2022-12-20T18:47:32.515Z,54.34
2022-12-20T18:49:35.073Z,53.06
2022-12-20T18:51:37.369Z,53.70
2022-12-20T18:53:40.801Z,54.05
2022-12-20T18:55:43.813Z,53.54
2022-12-20T18:57:45.532Z,54.18
2022-12-20T18:59:47.480Z,54.63
2022-12-20T19:01:49.869Z,54.83
2022-12-20T19:03:52.701Z,54.84
2022-12-20T19:05:55.569Z,55.04
2022-12-20T19:07:57.427Z,54.88
2022-12-20T19:09:59.180Z,55.11
2022-12-20T19:12:01.002Z,55.54
2022-12-20T19:14:03.845Z,55.26
2022-12-20T19:16:12.081Z,56.05
2022-12-20T19:18:14.425Z,54.62
2022-12-20T19:20:16.603Z,55.14
2022-12-20T19:22:18.531Z,54.72
2022-12-20T19:24:20.170Z,54.21
2022-12-20T19:26:24.388Z,55.03
2022-12-20T19:28:26.223Z,55.07
2022-12-20T19:30:28.095Z,54.58
2022-12-20T19:32:29.973Z,55.50
2022-12-20T19:34:31.658Z,55.85
2022-12-20T19:36:42.141Z,55.58
2022-12-20T19:38:45.678Z,56.29
2022-12-20T19:40:53.930Z,56.54
2022-12-20T19:42:55.804Z,55.61
2022-12-20T19:44:57.480Z,55.42
2022-12-20T19:47:06.046Z,55.15
2022-12-20T19:49:07.939Z,54.61
2022-12-20T19:51:15.682Z,54.79
2022-12-20T19:53:17.386Z,54.72
2022-12-20T19:55:19.107Z,54.89
2022-12-20T19:57:20.787Z,54.83
2022-12-20T19:59:22.796Z,54.70
2022-12-20T20:01:27.182Z,54.43
2022-12-20T20:03:30.896Z,54.68
2022-12-20T20:05:34.944Z,55.09
2022-12-20T20:07:36.576Z,54.90
2022-12-20T20:09:38.874Z,54.92
2022-12-20T20:11:40.761Z,54.71
2022-12-20T20:13:42.465Z,55.02
2022-12-20T20:15:50.793Z,54.97
2022-12-20T20:17:52.502Z,54.72
2022-12-20T20:19:54.242Z,54.93
2022-12-20T20:21:56.152Z,54.57
2022-12-20T20:23:57.858Z,54.59
2022-12-20T20:26:00.211Z,54.85
2022-12-20T20:28:02.983Z,54.97
2022-12-20T20:30:07.101Z,55.16
2022-12-20T20:32:09.183Z,54.91
2022-12-20T20:34:10.929Z,55.25
2022-12-20T20:36:14.457Z,55.25
2022-12-20T20:38:16.196Z,55.33
2022-12-20T20:40:18.297Z,55.80
2022-12-20T20:42:23.400Z,55.72
2022-12-20T20:44:25.701Z,55.51
2022-12-20T20:46:28.338Z,55.69
2022-12-20T20:48:33.424Z,55.43
2022-12-20T20:50:35.167Z,55.50
2022-12-20T20:52:36.905Z,55.31
2022-12-20T20:54:40.029Z,55.19
2022-12-20T20:56:42.107Z,55.55
2022-12-20T20:58:43.926Z,55.35
2022-12-20T21:00:45.569Z,55.14
2022-12-20T21:02:47.576Z,55.40
2022-12-20T21:05:14.391Z,55.99
2022-12-20T21:07:12.810Z,55.52
2022-12-20T21:09:14.944Z,55.30
2022-12-20T21:11:17.433Z,56.28
2022-12-20T21:13:19.389Z,56.80
2022-12-20T21:15:23.255Z,56.36
2022-12-20T21:17:25.482Z,57.13
2022-12-20T21:19:27.118Z,57.77
2022-12-20T21:21:29.063Z,58.52
2022-12-20T21:23:30.647Z,58.42
2022-12-20T21:25:32.636Z,58.75
2022-12-20T21:27:34.366Z,59.03
2022-12-20T21:29:36.137Z,59.34
2022-12-20T21:31:37.788Z,59.06
2022-12-20T21:33:39.960Z,58.45
2022-12-20T21:35:45.166Z,58.22
2022-12-20T21:37:50.135Z,58.24
2022-12-20T21:39:52.428Z,58.23
2022-12-20T21:41:59.958Z,57.67
2022-12-20T21:44:04.672Z,57.18
2022-12-20T21:46:11.287Z,56.91
2022-12-20T21:48:15.557Z,56.60
2022-12-20T21:50:17.259Z,56.52
2022-12-20T21:52:19.166Z,56.89
2022-12-20T21:54:20.919Z,56.89
2022-12-20T21:56:24.330Z,57.19
2022-12-20T21:58:27.629Z,56.83
2022-12-20T22:00:30.387Z,56.64
2022-12-20T22:02:32.206Z,56.87
2022-12-20T22:04:34.704Z,56.63
2022-12-20T22:06:36.383Z,57.30
2022-12-20T22:08:38.105Z,57.68
2022-12-20T22:10:39.848Z,57.71
2022-12-20T22:12:41.619Z,57.64
2022-12-20T22:14:43.282Z,57.21
2022-12-20T22:16:45.111Z,57.36
2022-12-20T22:18:51.495Z,57.04
2022-12-20T22:20:53.280Z,57.27
2022-12-20T22:22:55.013Z,57.77
2022-12-20T22:24:56.633Z,57.08
2022-12-20T22:27:01.992Z,57.40
2022-12-20T22:29:06.481Z,57.43
2022-12-20T22:31:09.412Z,57.18
2022-12-20T22:33:11.770Z,57.10
2022-12-20T22:35:16.422Z,57.53
2022-12-20T22:37:22.824Z,57.69
2022-12-20T22:39:24.558Z,57.27
2022-12-20T22:41:30.765Z,57.66
2022-12-20T22:43:32.564Z,57.73
2022-12-20T22:45:34.369Z,57.59
2022-12-20T22:47:36.322Z,57.36
2022-12-20T22:49:38.057Z,57.25
2022-12-20T22:51:39.743Z,57.51
2022-12-20T22:53:41.950Z,57.94
2022-12-20T22:55:43.568Z,57.78
2022-12-20T22:57:45.190Z,57.35
2022-12-20T22:59:46.831Z,57.10
2022-12-20T23:01:48.595Z,56.77
2022-12-20T23:03:50.651Z,57.05
2022-12-20T23:05:56.796Z,57.46
2022-12-20T23:07:58.535Z,57.42
2022-12-20T23:10:00.373Z,58.00
2022-12-20T23:12:20.573Z,58.91
2022-12-20T23:14:41.811Z,58.63
2022-12-20T23:16:43.688Z,59.11
2022-12-20T23:18:45.394Z,58.89
2022-12-20T23:21:11.115Z,59.27
2022-12-20T23:23:12.766Z,58.78
2022-12-20T23:25:21.168Z,58.61
2022-12-20T23:27:22.791Z,58.32
2022-12-20T23:29:24.691Z,58.21
2022-12-20T23:31:26.324Z,58.46
2022-12-20T23:33:28.296Z,58.07
2022-12-20T23:35:29.949Z,58.26
2022-12-20T23:37:33.571Z,57.95
2022-12-20T23:39:35.218Z,57.91
2022-12-20T23:41:36.901Z,58.36
2022-12-20T23:43:38.748Z,58.53
2022-12-20T23:45:40.350Z,58.63
2022-12-20T23:47:41.999Z,58.11
2022-12-20T23:49:43.639Z,58.24
2022-12-20T23:51:45.324Z,58.13
2022-12-20T23:53:51.191Z,58.27
2022-12-20T23:56:20.288Z,58.06
2022-12-20T23:58:21.988Z,57.95
